createdAt,value
2018-12-20T00:00:55.423Z,95396.35
2018-12-20T00:15:54.320Z,95403.11
2018-12-20T00:30:52.912Z,95415.72
2018-12-20T00:45:51.944Z,95441.89
2018-12-20T01:00:56.563Z,95439.53
2018-12-20T01:15:51.958Z,95432.77
2018-12-20T01:30:53.182Z,95417.89
2018-12-20T01:45:50.982Z,95405.37
2018-12-20T02:00:52.915Z,95383.63
2018-12-20T02:15:51.561Z,95378.09
2018-12-20T02:30:53.467Z,95385.00
2018-12-20T02:45:51.615Z,95394.34
2018-12-20T03:00:54.747Z,95398.83
2018-12-20T03:15:52.434Z,95391.56
2018-12-20T03:30:53.766Z,95393.19
2018-12-20T03:45:54.827Z,95387.86
2018-12-20T04:00:51.126Z,95385.50
2018-12-20T04:15:52.964Z,95383.38
2018-12-20T04:45:57.976Z,95415.92
2018-12-20T05:00:51.608Z,95415.92
2018-12-20T05:15:56.341Z,95413.86
2018-12-20T05:30:51.446Z,95434.75
2018-12-20T05:45:51.411Z,95447.09
2018-12-20T06:00:53.401Z,95437.20
2018-12-20T06:15:51.246Z,95423.71
2018-12-20T06:30:50.670Z,95438.70
2018-12-20T06:45:50.707Z,95459.63
2018-12-20T07:00:51.524Z,95472.27
2018-12-20T07:15:51.467Z,95485.44
2018-12-20T07:30:53.269Z,95486.92
2018-12-20T07:45:50.743Z,95499.72
2018-12-20T08:00:50.620Z,95502.90
2018-12-20T08:15:50.734Z,95517.92
2018-12-20T08:30:51.083Z,95505.84
2018-12-20T08:45:50.438Z,95506.09
2018-12-20T09:00:50.909Z,95514.87
2018-12-20T09:15:53.203Z,95504.02
2018-12-20T09:30:53.166Z,95492.88
2018-12-20T09:45:53.102Z,95478.53
2018-12-20T10:00:51.050Z,95446.16
2018-12-20T10:15:50.910Z,95453.70
2018-12-20T10:30:51.781Z,95444.26
2018-12-20T10:45:51.225Z,95424.56
2018-12-20T11:00:56.363Z,95402.66
2018-12-20T11:15:51.038Z,95388.80
2018-12-20T11:30:51.001Z,95382.11
2018-12-20T11:45:51.443Z,95362.16
2018-12-20T12:00:51.340Z,95368.36
2018-12-20T12:15:51.372Z,95366.08
2018-12-20T12:30:50.720Z,95373.03
2018-12-20T12:45:52.493Z,95350.34
2018-12-20T13:00:50.470Z,95359.90
2018-12-20T13:15:54.055Z,95374.84
2018-12-20T13:30:51.348Z,95375.48
2018-12-20T13:45:53.381Z,95390.63
2018-12-20T14:00:52.750Z,95382.13
2018-12-20T14:15:50.793Z,95396.19
2018-12-20T14:30:51.064Z,95378.38
2018-12-20T14:45:51.556Z,95383.73
2018-12-20T15:00:51.266Z,95387.98
2018-12-20T15:15:50.878Z,95395.22
2018-12-20T15:30:51.321Z,95418.36
2018-12-20T15:45:54.230Z,95444.86
2018-12-20T16:00:52.436Z,95446.41
2018-12-20T16:15:51.129Z,95471.97
2018-12-20T16:30:53.742Z,95479.73
2018-12-20T16:45:53.891Z,95492.62
2018-12-20T17:45:53.521Z,95494.50
2018-12-20T18:15:53.404Z,95505.48
2018-12-20T18:30:54.502Z,95485.22
2018-12-20T18:45:51.657Z,95504.81
2018-12-20T19:15:55.748Z,95507.83
2018-12-20T19:45:51.299Z,95522.70
2018-12-20T20:00:57.683Z,95530.70
2018-12-20T20:15:55.650Z,95530.94
2018-12-20T20:30:52.237Z,95530.59
2018-12-20T20:45:51.420Z,95556.30
2018-12-20T21:00:57.052Z,95536.58
2018-12-20T21:15:50.722Z,95538.66
2018-12-20T21:30:50.789Z,95539.98
2018-12-20T21:45:53.027Z,95532.23
2018-12-20T22:00:59.162Z,95530.16
2018-12-20T22:15:56.006Z,95534.47
2018-12-20T22:30:51.211Z,95533.59
2018-12-20T22:45:52.686Z,95513.27
2018-12-20T23:00:56.284Z,95523.73
2018-12-20T23:15:50.679Z,95510.83
2018-12-20T23:30:50.971Z,95509.56
2018-12-20T23:45:50.996Z,95513.98
